createdAt,value
2018-03-27T00:00:10.991Z,0
2018-03-27T00:01:19.823Z,0
2018-03-27T00:02:28.916Z,0
2018-03-27T00:03:37.740Z,0
2018-03-27T00:04:46.803Z,0
2018-03-27T00:05:56.029Z,0
2018-03-27T00:07:04.854Z,0
2018-03-27T00:08:13.683Z,0
2018-03-27T00:09:22.506Z,0
2018-03-27T00:10:31.333Z,0
2018-03-27T00:11:40.309Z,0
2018-03-27T00:12:49.133Z,0
2018-03-27T00:13:57.959Z,0
2018-03-27T00:15:06.786Z,0
2018-03-27T00:16:15.613Z,0
2018-03-27T00:17:24.540Z,0
2018-03-27T00:18:33.369Z,0
2018-03-27T00:19:42.469Z,0
2018-03-27T00:20:51.295Z,0
2018-03-27T00:22:00.121Z,0
2018-03-27T00:23:09.105Z,0
2018-03-27T00:24:17.930Z,0
2018-03-27T00:25:26.760Z,0
2018-03-27T00:26:36.140Z,0
2018-03-27T00:27:44.966Z,0
2018-03-27T00:28:54.093Z,0
2018-03-27T00:30:02.923Z,0
2018-03-27T00:31:11.747Z,0
2018-03-27T00:32:20.573Z,0
2018-03-27T00:33:29.414Z,0
2018-03-27T00:34:38.292Z,0
2018-03-27T00:35:47.115Z,0
2018-03-27T00:36:56.220Z,0
2018-03-27T00:38:05.053Z,0
2018-03-27T00:39:13.882Z,0
2018-03-27T00:40:23.141Z,0
2018-03-27T00:41:31.966Z,0
2018-03-27T00:42:40.796Z,0
2018-03-27T00:43:49.617Z,0
2018-03-27T00:44:58.719Z,0
2018-03-27T00:46:07.748Z,0
2018-03-27T00:47:16.576Z,0
2018-03-27T00:48:25.981Z,0
2018-03-27T00:49:34.806Z,0
2018-03-27T00:50:43.633Z,0
2018-03-27T00:51:52.462Z,0
2018-03-27T00:53:01.578Z,0
2018-03-27T00:54:10.403Z,0
2018-03-27T00:55:19.226Z,0
2018-03-27T00:56:28.051Z,0
2018-03-27T00:57:36.878Z,0
2018-03-27T00:58:45.704Z,0
2018-03-27T00:59:54.531Z,0
2018-03-27T01:01:03.357Z,0
2018-03-27T01:02:12.185Z,0
2018-03-27T01:03:21.012Z,0
2018-03-27T01:04:29.838Z,0
2018-03-27T01:05:38.667Z,0
2018-03-27T01:06:47.765Z,0
2018-03-27T01:07:56.594Z,0
2018-03-27T01:09:05.746Z,0
2018-03-27T01:10:14.849Z,0
2018-03-27T01:11:23.952Z,0
2018-03-27T01:12:32.776Z,0
2018-03-27T01:13:41.602Z,0
2018-03-27T01:14:51.003Z,0
2018-03-27T01:16:00.106Z,0
2018-03-27T01:17:08.932Z,0
2018-03-27T01:18:17.755Z,0
2018-03-27T01:19:26.590Z,0
2018-03-27T01:20:35.566Z,0
2018-03-27T01:21:44.672Z,0
2018-03-27T01:22:53.499Z,0
2018-03-27T01:24:02.324Z,0
2018-03-27T01:25:11.150Z,0
2018-03-27T01:26:20.127Z,0
2018-03-27T01:27:28.953Z,0
2018-03-27T01:28:37.778Z,0
2018-03-27T01:29:46.604Z,0
2018-03-27T01:30:55.431Z,0
2018-03-27T01:32:04.355Z,0
2018-03-27T01:33:13.186Z,0
2018-03-27T01:34:22.005Z,0
2018-03-27T01:35:30.831Z,0
2018-03-27T01:36:39.656Z,0
2018-03-27T01:37:48.636Z,0
2018-03-27T01:38:57.465Z,0
2018-03-27T01:40:06.287Z,0
2018-03-27T01:41:15.113Z,0
2018-03-27T01:42:23.939Z,0
2018-03-27T01:43:33.144Z,0
2018-03-27T01:44:42.249Z,0
2018-03-27T01:45:51.077Z,0
2018-03-27T01:46:59.901Z,0
2018-03-27T01:48:08.738Z,0
2018-03-27T01:49:17.711Z,0
2018-03-27T01:50:26.534Z,0
2018-03-27T01:51:35.361Z,0
2018-03-27T01:52:44.185Z,0
2018-03-27T01:53:53.286Z,0
2018-03-27T01:55:02.261Z,0
2018-03-27T01:56:11.089Z,0
2018-03-27T01:57:19.912Z,0
2018-03-27T01:58:28.740Z,0
2018-03-27T01:59:37.566Z,0
2018-03-27T02:00:46.442Z,0
2018-03-27T02:01:55.269Z,0
2018-03-27T02:03:04.096Z,0
2018-03-27T02:04:12.922Z,0
2018-03-27T02:05:21.747Z,0
2018-03-27T02:06:30.573Z,0
2018-03-27T02:07:39.686Z,0
2018-03-27T02:08:48.516Z,0
2018-03-27T02:09:57.344Z,0
2018-03-27T02:11:06.443Z,0
2018-03-27T02:12:15.846Z,0
2018-03-27T02:13:24.667Z,0
2018-03-27T02:14:33.495Z,0
2018-03-27T02:15:42.318Z,0
2018-03-27T02:16:51.143Z,0
2018-03-27T02:17:59.967Z,0
2018-03-27T02:19:08.794Z,0
2018-03-27T02:20:17.618Z,0
2018-03-27T02:21:26.446Z,0
2018-03-27T02:22:35.272Z,0
2018-03-27T02:23:44.149Z,0
2018-03-27T02:24:52.974Z,0
2018-03-27T02:26:01.802Z,0
2018-03-27T02:27:10.628Z,0
2018-03-27T02:28:19.456Z,0
2018-03-27T02:29:28.433Z,0
2018-03-27T02:30:37.264Z,0
2018-03-27T02:31:46.088Z,0
2018-03-27T02:32:54.917Z,0
2018-03-27T02:34:03.747Z,0
2018-03-27T02:35:13.154Z,0
2018-03-27T02:36:21.982Z,0
2018-03-27T02:37:31.086Z,0
2018-03-27T02:38:40.204Z,0
2018-03-27T02:39:49.029Z,0
2018-03-27T02:40:57.906Z,0
2018-03-27T02:42:07.014Z,0
2018-03-27T02:43:15.841Z,0
2018-03-27T02:44:24.945Z,0
2018-03-27T02:45:33.773Z,0
2018-03-27T02:46:42.697Z,0
2018-03-27T02:47:51.521Z,0
2018-03-27T02:49:00.348Z,0
2018-03-27T02:50:09.735Z,0
2018-03-27T02:51:18.562Z,0
2018-03-27T02:52:27.537Z,0
2018-03-27T02:53:36.367Z,0
2018-03-27T02:54:45.201Z,0
2018-03-27T02:55:54.016Z,0
2018-03-27T02:57:02.843Z,0
2018-03-27T02:58:11.870Z,0
2018-03-27T02:59:20.976Z,0
2018-03-27T03:00:29.798Z,0
2018-03-27T03:01:39.184Z,0
2018-03-27T03:02:48.576Z,0
2018-03-27T03:03:57.708Z,0
2018-03-27T03:05:06.813Z,0
2018-03-27T03:06:15.917Z,0
2018-03-27T03:07:24.743Z,0
2018-03-27T03:08:33.568Z,0
2018-03-27T03:09:42.697Z,0
2018-03-27T03:10:51.524Z,0
2018-03-27T03:12:00.351Z,0
2018-03-27T03:13:09.177Z,0
2018-03-27T03:14:18.003Z,0
2018-03-27T03:15:26.828Z,0
2018-03-27T03:16:35.655Z,0
2018-03-27T03:17:44.482Z,0
2018-03-27T03:18:53.308Z,0
2018-03-27T03:20:02.411Z,0
2018-03-27T03:21:11.238Z,0
2018-03-27T03:22:20.064Z,0
2018-03-27T03:23:28.898Z,0
2018-03-27T03:24:38.278Z,0
2018-03-27T03:25:47.101Z,0
2018-03-27T03:26:56.126Z,0
2018-03-27T03:28:04.952Z,0
2018-03-27T03:29:13.783Z,0
2018-03-27T03:30:22.605Z,0
2018-03-27T03:31:31.429Z,0
2018-03-27T03:32:40.402Z,0
2018-03-27T03:33:49.228Z,0
2018-03-27T03:34:58.331Z,0
2018-03-27T03:36:07.157Z,0
2018-03-27T03:37:15.982Z,0
2018-03-27T03:38:25.208Z,0
2018-03-27T03:39:34.311Z,0
2018-03-27T03:40:43.136Z,0
2018-03-27T03:41:51.961Z,0
2018-03-27T03:43:00.790Z,0
2018-03-27T03:44:09.713Z,0
2018-03-27T03:45:18.539Z,0
2018-03-27T03:46:27.374Z,0
2018-03-27T03:47:36.190Z,0
2018-03-27T03:48:45.017Z,0
2018-03-27T03:49:54.092Z,0
2018-03-27T03:51:02.921Z,0
2018-03-27T03:52:12.019Z,0
2018-03-27T03:53:20.844Z,0
2018-03-27T03:54:29.670Z,0
2018-03-27T03:55:38.594Z,0
2018-03-27T03:56:47.425Z,0
2018-03-27T03:57:56.527Z,0
2018-03-27T03:59:05.358Z,0
2018-03-27T04:00:14.173Z,0
2018-03-27T04:01:23.250Z,0
2018-03-27T04:02:32.361Z,0
2018-03-27T04:03:41.472Z,0
2018-03-27T04:04:50.301Z,0
2018-03-27T04:05:59.402Z,0
2018-03-27T04:07:08.380Z,0
2018-03-27T04:08:17.203Z,0
2018-03-27T04:09:26.028Z,0
2018-03-27T04:10:34.855Z,0
2018-03-27T04:11:43.683Z,0
2018-03-27T04:12:52.658Z,0
2018-03-27T04:14:01.487Z,0
2018-03-27T04:15:10.318Z,0
2018-03-27T04:16:19.147Z,0
2018-03-27T04:17:27.978Z,0
2018-03-27T04:18:37.101Z,0
2018-03-27T04:19:45.929Z,0
2018-03-27T04:20:55.030Z,0
2018-03-27T04:22:03.858Z,0
2018-03-27T04:23:12.960Z,0
2018-03-27T04:24:22.174Z,0
2018-03-27T04:25:30.999Z,0
2018-03-27T04:26:39.824Z,0
2018-03-27T04:27:48.648Z,0
2018-03-27T04:28:57.475Z,0
2018-03-27T04:30:06.350Z,0
2018-03-27T04:31:15.179Z,0
2018-03-27T04:32:24.004Z,0
2018-03-27T04:33:32.833Z,0
2018-03-27T04:34:41.934Z,0
2018-03-27T04:35:50.810Z,0
2018-03-27T04:36:59.915Z,0
2018-03-27T04:38:08.741Z,0
2018-03-27T04:39:17.568Z,0
2018-03-27T04:40:26.395Z,0
2018-03-27T04:41:35.598Z,0
2018-03-27T04:42:44.426Z,0
2018-03-27T04:43:53.527Z,0
2018-03-27T04:45:02.636Z,0
2018-03-27T04:46:11.458Z,0
2018-03-27T04:47:20.380Z,0
2018-03-27T04:48:29.207Z,0
2018-03-27T04:49:38.030Z,0
2018-03-27T04:50:46.864Z,0
2018-03-27T04:51:56.015Z,0
2018-03-27T04:53:04.840Z,0
2018-03-27T04:54:13.674Z,0
2018-03-27T04:55:22.776Z,0
2018-03-27T04:56:31.601Z,0
2018-03-27T04:57:40.424Z,0
2018-03-27T04:58:49.651Z,0
2018-03-27T04:59:58.478Z,0
2018-03-27T05:01:07.303Z,0
2018-03-27T05:02:16.130Z,0
2018-03-27T05:03:24.957Z,0
2018-03-27T05:04:33.934Z,5
2018-03-27T05:05:42.758Z,5
2018-03-27T05:06:51.584Z,5
2018-03-27T05:08:00.410Z,5
2018-03-27T05:09:09.238Z,5
2018-03-27T05:10:18.062Z,5
2018-03-27T05:11:27.167Z,10
2018-03-27T05:12:35.991Z,10
2018-03-27T05:13:44.820Z,10
2018-03-27T05:14:53.937Z,10
2018-03-27T05:16:02.764Z,15
2018-03-27T05:17:11.868Z,15
2018-03-27T05:18:20.694Z,15
2018-03-27T05:19:29.516Z,15
2018-03-27T05:20:38.342Z,20
2018-03-27T05:21:47.217Z,20
2018-03-27T05:22:56.045Z,20
2018-03-27T05:24:04.869Z,25
2018-03-27T05:25:13.696Z,25
2018-03-27T05:26:22.804Z,25
2018-03-27T05:27:31.935Z,25
2018-03-27T05:28:40.758Z,30
2018-03-27T05:29:49.591Z,30
2018-03-27T05:30:58.689Z,30
2018-03-27T05:32:07.517Z,35
2018-03-27T05:33:16.894Z,35
2018-03-27T05:34:25.719Z,35
2018-03-27T05:35:34.544Z,35
2018-03-27T05:36:43.651Z,40
2018-03-27T05:37:52.479Z,40
2018-03-27T05:39:01.555Z,45
2018-03-27T05:40:10.384Z,45
2018-03-27T05:41:19.760Z,45
2018-03-27T05:42:28.588Z,50
2018-03-27T05:43:37.414Z,50
2018-03-27T05:44:46.638Z,50
2018-03-27T05:45:55.464Z,55
2018-03-27T05:47:04.291Z,55
2018-03-27T05:48:13.118Z,60
2018-03-27T05:49:21.944Z,60
2018-03-27T05:50:30.824Z,60
2018-03-27T05:51:39.652Z,65
2018-03-27T05:52:48.477Z,65
2018-03-27T05:53:57.303Z,70
2018-03-27T05:55:06.684Z,70
2018-03-27T05:56:15.661Z,75
2018-03-27T05:57:24.487Z,80
2018-03-27T05:58:33.318Z,80
2018-03-27T05:59:42.147Z,85
2018-03-27T06:00:51.250Z,85
2018-03-27T06:02:00.376Z,85
2018-03-27T06:03:09.204Z,90
2018-03-27T06:04:18.304Z,90
2018-03-27T06:05:27.139Z,90
2018-03-27T06:06:36.241Z,95
2018-03-27T06:07:45.931Z,95
2018-03-27T06:08:55.031Z,95
2018-03-27T06:10:03.857Z,95
2018-03-27T06:11:12.701Z,95
2018-03-27T06:12:21.519Z,95
2018-03-27T06:13:30.725Z,100
2018-03-27T06:14:39.555Z,100
2018-03-27T06:15:48.383Z,100
2018-03-27T06:16:57.208Z,100
2018-03-27T06:18:06.318Z,100
2018-03-27T06:19:15.194Z,105
2018-03-27T06:20:24.022Z,110
2018-03-27T06:21:32.848Z,110
2018-03-27T06:22:41.683Z,115
2018-03-27T06:23:50.505Z,115
2018-03-27T06:24:59.332Z,115
2018-03-27T06:26:08.160Z,120
2018-03-27T06:27:16.988Z,120
2018-03-27T06:28:25.815Z,130
2018-03-27T06:29:34.645Z,125
2018-03-27T06:30:43.573Z,125
2018-03-27T06:31:52.400Z,125
2018-03-27T06:33:01.230Z,130
2018-03-27T06:34:10.054Z,130
2018-03-27T06:35:18.880Z,130
2018-03-27T06:36:27.910Z,130
2018-03-27T06:37:36.735Z,135
2018-03-27T06:38:45.563Z,135
2018-03-27T06:39:54.673Z,135
2018-03-27T06:41:03.776Z,135
2018-03-27T06:42:12.798Z,140
2018-03-27T06:43:21.582Z,140
2018-03-27T06:44:30.409Z,145
2018-03-27T06:45:39.240Z,150
2018-03-27T06:46:48.069Z,155
2018-03-27T06:47:56.949Z,155
2018-03-27T06:49:05.783Z,160
2018-03-27T06:50:14.608Z,160
2018-03-27T06:51:23.759Z,165
2018-03-27T06:52:32.587Z,165
2018-03-27T06:53:41.750Z,170
2018-03-27T06:54:50.856Z,175
2018-03-27T06:55:59.970Z,170
2018-03-27T06:57:09.349Z,170
2018-03-27T06:58:18.177Z,170
2018-03-27T06:59:27.154Z,175
2018-03-27T07:00:35.983Z,175
2018-03-27T07:01:44.842Z,175
2018-03-27T07:02:53.641Z,175
2018-03-27T07:04:02.470Z,180
2018-03-27T07:05:11.628Z,185
2018-03-27T07:06:20.766Z,185
2018-03-27T07:07:29.568Z,190
2018-03-27T07:08:38.403Z,190
2018-03-27T07:09:47.234Z,190
2018-03-27T07:10:56.446Z,190
2018-03-27T07:12:05.314Z,195
2018-03-27T07:13:14.095Z,200
2018-03-27T07:14:23.259Z,205
2018-03-27T07:15:32.110Z,210
2018-03-27T07:16:41.013Z,215
2018-03-27T07:17:49.825Z,220
2018-03-27T07:18:58.682Z,220
2018-03-27T07:20:07.809Z,225
2018-03-27T07:21:16.627Z,225
2018-03-27T07:22:25.591Z,230
2018-03-27T07:23:34.418Z,235
2018-03-27T07:24:43.250Z,235
2018-03-27T07:25:52.361Z,240
2018-03-27T07:27:01.268Z,240
2018-03-27T07:28:10.273Z,245
2018-03-27T07:29:19.101Z,245
2018-03-27T07:30:28.266Z,245
2018-03-27T07:31:37.038Z,245
2018-03-27T07:32:45.868Z,245
2018-03-27T07:33:54.748Z,250
2018-03-27T07:35:03.574Z,260
2018-03-27T07:36:12.686Z,265
2018-03-27T07:37:21.799Z,265
2018-03-27T07:38:30.907Z,265
2018-03-27T07:39:40.033Z,265
2018-03-27T07:40:48.862Z,260
2018-03-27T07:41:57.693Z,250
2018-03-27T07:43:06.526Z,235
2018-03-27T07:44:15.629Z,225
2018-03-27T07:45:24.507Z,210
2018-03-27T07:46:33.340Z,200
2018-03-27T07:47:42.170Z,185
2018-03-27T07:48:51.003Z,175
2018-03-27T07:49:59.832Z,165
2018-03-27T07:51:09.041Z,165
2018-03-27T07:52:18.147Z,165
2018-03-27T07:53:26.978Z,170
2018-03-27T07:54:35.810Z,165
2018-03-27T07:55:44.638Z,165
2018-03-27T07:56:53.803Z,175
2018-03-27T07:58:02.634Z,170
2018-03-27T07:59:11.463Z,180
2018-03-27T08:00:20.290Z,185
2018-03-27T08:01:29.120Z,185
2018-03-27T08:02:38.374Z,185
2018-03-27T08:03:47.209Z,185
2018-03-27T08:04:56.313Z,185
2018-03-27T08:06:05.436Z,185
2018-03-27T08:07:14.269Z,190
2018-03-27T08:08:23.244Z,190
2018-03-27T08:09:32.077Z,190
2018-03-27T08:10:40.908Z,190
2018-03-27T08:11:49.739Z,190
2018-03-27T08:12:58.572Z,190
2018-03-27T08:14:07.551Z,195
2018-03-27T08:15:16.379Z,195
2018-03-27T08:16:25.212Z,200
2018-03-27T08:17:34.043Z,200
2018-03-27T08:18:42.873Z,205
2018-03-27T08:19:51.953Z,205
2018-03-27T08:21:00.785Z,210
2018-03-27T08:22:41.669Z,220
2018-03-27T08:23:50.497Z,225
2018-03-27T08:24:59.377Z,235
2018-03-27T08:26:08.214Z,240
2018-03-27T08:27:17.038Z,250
2018-03-27T08:28:25.866Z,255
2018-03-27T08:29:34.696Z,260
2018-03-27T08:30:43.776Z,275
2018-03-27T08:31:52.603Z,290
2018-03-27T08:33:01.432Z,305
2018-03-27T08:34:10.266Z,320
2018-03-27T08:35:19.096Z,340
2018-03-27T08:36:28.078Z,360
2018-03-27T08:37:36.906Z,370
2018-03-27T08:38:45.739Z,375
2018-03-27T08:39:54.569Z,375
2018-03-27T08:41:03.401Z,365
2018-03-27T08:42:12.385Z,360
2018-03-27T08:43:21.604Z,355
2018-03-27T08:44:30.395Z,360
2018-03-27T08:45:39.232Z,365
2018-03-27T08:46:48.063Z,375
2018-03-27T08:47:56.947Z,390
2018-03-27T08:49:05.779Z,415
2018-03-27T08:50:14.617Z,435
2018-03-27T08:51:23.443Z,440
2018-03-27T08:52:32.274Z,450
2018-03-27T08:53:41.108Z,435
2018-03-27T08:54:50.551Z,435
2018-03-27T08:55:59.329Z,445
2018-03-27T08:57:08.162Z,435
2018-03-27T08:58:16.997Z,425
2018-03-27T08:59:25.982Z,420
2018-03-27T09:00:34.814Z,425
2018-03-27T09:01:43.646Z,420
2018-03-27T09:02:52.479Z,415
2018-03-27T09:04:01.312Z,415
2018-03-27T09:05:10.246Z,420
2018-03-27T09:06:19.098Z,425
2018-03-27T09:07:27.911Z,430
2018-03-27T09:08:36.744Z,435
2018-03-27T09:09:45.577Z,455
2018-03-27T09:10:54.511Z,465
2018-03-27T09:12:03.341Z,485
2018-03-27T09:13:12.173Z,485
2018-03-27T09:14:21.004Z,485
2018-03-27T09:15:29.837Z,475
2018-03-27T09:16:38.671Z,470
2018-03-27T09:17:47.503Z,465
2018-03-27T09:18:56.337Z,465
2018-03-27T09:20:05.171Z,455
2018-03-27T09:21:14.005Z,440
2018-03-27T09:22:22.887Z,430
2018-03-27T09:23:31.723Z,410
2018-03-27T09:24:40.556Z,390
2018-03-27T09:25:49.389Z,380
2018-03-27T09:26:58.498Z,390
2018-03-27T09:28:07.386Z,410
2018-03-27T09:29:16.214Z,435
2018-03-27T09:30:25.047Z,475
2018-03-27T09:31:33.881Z,505
2018-03-27T09:32:42.713Z,525
2018-03-27T09:33:51.646Z,540
2018-03-27T09:35:00.480Z,555
2018-03-27T09:36:09.315Z,570
2018-03-27T09:37:18.153Z,585
2018-03-27T09:38:26.983Z,560
2018-03-27T09:39:35.916Z,545
2018-03-27T09:40:44.760Z,540
2018-03-27T09:41:53.584Z,550
2018-03-27T09:43:02.416Z,580
2018-03-27T09:44:11.252Z,585
2018-03-27T09:45:20.734Z,575
2018-03-27T09:46:29.570Z,555
2018-03-27T09:47:38.681Z,525
2018-03-27T09:48:47.792Z,495
2018-03-27T09:49:56.628Z,475
2018-03-27T09:51:06.216Z,460
2018-03-27T09:52:15.341Z,470
2018-03-27T09:53:24.175Z,485
2018-03-27T09:54:33.009Z,490
2018-03-27T09:55:41.845Z,475
2018-03-27T09:56:50.831Z,475
2018-03-27T09:57:59.664Z,475
2018-03-27T09:59:08.500Z,475
2018-03-27T10:00:17.333Z,465
2018-03-27T10:01:26.167Z,455
2018-03-27T10:02:35.151Z,450
2018-03-27T10:03:44.266Z,440
2018-03-27T10:04:53.096Z,415
2018-03-27T10:06:01.932Z,400
2018-03-27T10:07:10.777Z,415
2018-03-27T10:08:20.012Z,425
2018-03-27T10:09:28.846Z,420
2018-03-27T10:10:37.681Z,410
2018-03-27T10:11:46.515Z,395
2018-03-27T10:12:55.636Z,390
2018-03-27T10:14:04.720Z,410
2018-03-27T10:15:13.556Z,440
2018-03-27T10:16:22.388Z,470
2018-03-27T10:17:31.226Z,490
2018-03-27T10:18:40.057Z,520
2018-03-27T10:19:49.472Z,545
2018-03-27T10:20:58.307Z,575
2018-03-27T10:22:07.159Z,595
2018-03-27T10:23:15.974Z,595
2018-03-27T10:24:25.083Z,580
2018-03-27T10:25:34.018Z,555
2018-03-27T10:26:42.854Z,525
2018-03-27T10:27:51.688Z,500
2018-03-27T10:29:00.530Z,475
2018-03-27T10:30:09.364Z,460
2018-03-27T10:31:18.354Z,460
2018-03-27T10:32:27.183Z,470
2018-03-27T10:33:36.019Z,470
2018-03-27T10:34:44.856Z,475
2018-03-27T10:35:53.967Z,490
2018-03-27T10:37:02.902Z,520
2018-03-27T10:38:11.737Z,535
2018-03-27T10:39:20.852Z,530
2018-03-27T10:40:29.687Z,510
2018-03-27T10:41:38.524Z,490
2018-03-27T10:42:47.665Z,485
2018-03-27T10:43:56.502Z,520
2018-03-27T10:45:05.337Z,570
2018-03-27T10:46:14.173Z,635
2018-03-27T10:47:23.005Z,665
2018-03-27T10:48:32.222Z,640
2018-03-27T10:49:41.058Z,665
2018-03-27T10:50:49.894Z,710
2018-03-27T10:51:58.729Z,725
2018-03-27T10:53:07.841Z,695
2018-03-27T10:54:16.926Z,645
2018-03-27T10:55:25.761Z,590
2018-03-27T10:56:34.600Z,525
2018-03-27T10:57:43.436Z,475
2018-03-27T10:58:52.545Z,440
2018-03-27T11:00:01.430Z,455
2018-03-27T11:01:10.267Z,470
2018-03-27T11:02:19.103Z,480
2018-03-27T11:03:28.216Z,490
2018-03-27T11:04:37.336Z,485
2018-03-27T11:05:46.276Z,485
2018-03-27T11:06:55.395Z,495
2018-03-27T11:08:04.232Z,485
2018-03-27T11:09:13.067Z,485
2018-03-27T11:10:21.901Z,490
2018-03-27T11:11:31.138Z,510
2018-03-27T11:12:39.972Z,535
2018-03-27T11:13:48.808Z,535
2018-03-27T11:14:57.642Z,540
2018-03-27T11:16:06.476Z,520
2018-03-27T11:17:15.563Z,530
2018-03-27T11:18:24.399Z,530
2018-03-27T11:19:33.234Z,520
2018-03-27T11:20:42.351Z,495
2018-03-27T11:21:51.194Z,465
2018-03-27T11:23:00.191Z,455
2018-03-27T11:24:09.018Z,450
2018-03-27T11:25:17.856Z,455
2018-03-27T11:26:26.687Z,445
2018-03-27T11:27:35.521Z,445
2018-03-27T11:28:44.758Z,445
2018-03-27T11:29:53.595Z,470
2018-03-27T11:31:02.430Z,475
2018-03-27T11:32:11.265Z,485
2018-03-27T11:33:20.376Z,495
2018-03-27T11:34:29.363Z,510
2018-03-27T11:35:38.200Z,495
2018-03-27T11:36:47.036Z,470
2018-03-27T11:37:55.947Z,490
2018-03-27T11:39:04.707Z,525
2018-03-27T11:40:13.643Z,535
2018-03-27T11:41:22.478Z,540
2018-03-27T11:42:31.315Z,545
2018-03-27T11:43:40.434Z,550
2018-03-27T11:44:49.272Z,545
2018-03-27T11:45:58.218Z,555
2018-03-27T11:47:07.054Z,560
2018-03-27T11:48:15.953Z,555
2018-03-27T11:49:24.727Z,565
2018-03-27T11:50:33.573Z,575
2018-03-27T11:51:42.502Z,575
2018-03-27T11:52:51.339Z,570
2018-03-27T11:54:00.175Z,570
2018-03-27T11:55:09.010Z,585
2018-03-27T11:56:18.124Z,610
2018-03-27T11:57:27.167Z,650
2018-03-27T11:58:35.998Z,625
2018-03-27T11:59:44.833Z,635
2018-03-27T12:00:53.666Z,650
2018-03-27T12:02:02.782Z,985
2018-03-27T12:03:11.669Z,1795
2018-03-27T12:04:20.506Z,1855
2018-03-27T12:05:29.636Z,1955
2018-03-27T12:06:38.472Z,2000
2018-03-27T12:07:47.308Z,2000
2018-03-27T12:08:56.194Z,2150
2018-03-27T12:10:05.038Z,2210
2018-03-27T12:11:14.155Z,2075
2018-03-27T12:12:22.994Z,2155
2018-03-27T12:13:31.834Z,1840
2018-03-27T12:14:40.824Z,1810
2018-03-27T12:15:49.664Z,2180
2018-03-27T12:16:58.505Z,2190
2018-03-27T12:18:07.345Z,1590
2018-03-27T12:19:16.186Z,645
2018-03-27T12:20:25.327Z,635
2018-03-27T12:21:34.443Z,685
2018-03-27T12:22:43.284Z,760
2018-03-27T12:23:52.124Z,1465
2018-03-27T12:25:00.963Z,1305
2018-03-27T12:26:09.953Z,1250
2018-03-27T12:27:18.795Z,1290
2018-03-27T12:28:27.637Z,1380
2018-03-27T12:29:36.477Z,1515
2018-03-27T12:30:45.318Z,940
2018-03-27T12:31:54.206Z,1280
2018-03-27T12:33:03.043Z,740
2018-03-27T12:34:12.168Z,660
2018-03-27T12:35:21.009Z,640
2018-03-27T12:36:29.844Z,705
2018-03-27T12:37:39.057Z,1015
2018-03-27T12:38:47.898Z,1180
2018-03-27T12:39:56.742Z,860
2018-03-27T12:41:05.577Z,740
2018-03-27T12:42:14.478Z,730
2018-03-27T12:43:23.305Z,850
2018-03-27T12:44:32.145Z,660
2018-03-27T12:45:41.261Z,625
2018-03-27T12:46:50.098Z,610
2018-03-27T12:47:58.939Z,590
2018-03-27T12:49:08.080Z,600
2018-03-27T12:50:16.919Z,650
2018-03-27T12:51:25.757Z,695
2018-03-27T12:52:34.599Z,730
2018-03-27T12:53:43.435Z,910
2018-03-27T12:54:52.572Z,990
2018-03-27T12:56:01.416Z,980
2018-03-27T12:57:10.252Z,1055
2018-03-27T12:58:19.091Z,1035
2018-03-27T12:59:28.210Z,955
2018-03-27T13:00:37.149Z,1040
2018-03-27T13:01:45.986Z,1075
2018-03-27T13:02:54.826Z,835
2018-03-27T13:04:03.664Z,850
2018-03-27T13:05:12.509Z,810
2018-03-27T13:06:22.019Z,730
2018-03-27T13:07:30.859Z,685
2018-03-27T13:08:39.697Z,675
2018-03-27T13:09:48.535Z,665
2018-03-27T13:10:57.375Z,650
2018-03-27T13:12:06.371Z,755
2018-03-27T13:13:15.482Z,815
2018-03-27T13:14:24.320Z,770
2018-03-27T13:15:33.156Z,710
2018-03-27T13:16:41.993Z,705
2018-03-27T13:17:51.311Z,695
2018-03-27T13:19:00.424Z,715
2018-03-27T13:20:09.537Z,1055
2018-03-27T13:21:18.376Z,880
2018-03-27T13:22:27.214Z,865
2018-03-27T13:23:36.154Z,745
2018-03-27T13:24:45.268Z,735
2018-03-27T13:25:54.107Z,730
2018-03-27T13:27:02.948Z,695
2018-03-27T13:28:11.788Z,655
2018-03-27T13:29:20.682Z,630
2018-03-27T13:30:29.520Z,620
2018-03-27T13:31:38.360Z,645
2018-03-27T13:32:47.200Z,610
2018-03-27T13:33:56.313Z,570
2018-03-27T13:35:05.309Z,540
2018-03-27T13:36:14.137Z,500
2018-03-27T13:37:22.979Z,450
2018-03-27T13:38:32.091Z,420
2018-03-27T13:39:40.932Z,415
2018-03-27T13:40:49.769Z,425
2018-03-27T13:41:58.607Z,425
2018-03-27T13:43:07.726Z,425
2018-03-27T13:44:16.569Z,425
2018-03-27T13:45:25.680Z,400
2018-03-27T13:46:34.518Z,380
2018-03-27T13:47:43.359Z,385
2018-03-27T13:48:52.196Z,370
2018-03-27T13:50:01.035Z,355
2018-03-27T13:51:09.869Z,345
2018-03-27T13:52:19.083Z,340
2018-03-27T13:53:27.954Z,330
2018-03-27T13:54:37.031Z,315
2018-03-27T13:55:46.153Z,300
2018-03-27T13:56:54.988Z,295
2018-03-27T13:58:04.353Z,305
2018-03-27T13:59:13.193Z,325
2018-03-27T14:00:22.060Z,355
2018-03-27T14:01:30.863Z,375
2018-03-27T14:02:39.699Z,415
2018-03-27T14:03:48.935Z,470
2018-03-27T14:04:57.771Z,745
2018-03-27T14:06:06.608Z,1065
2018-03-27T14:07:15.732Z,1065
2018-03-27T14:08:24.560Z,930
2018-03-27T14:09:34.213Z,1355
2018-03-27T14:10:43.043Z,890
2018-03-27T14:11:51.877Z,905
2018-03-27T14:13:00.713Z,870
2018-03-27T14:14:09.554Z,720
2018-03-27T14:15:18.543Z,665
2018-03-27T14:16:27.378Z,635
2018-03-27T14:17:36.215Z,580
2018-03-27T14:18:45.057Z,535
2018-03-27T14:19:53.895Z,480
2018-03-27T14:21:02.835Z,430
2018-03-27T14:22:11.668Z,420
2018-03-27T14:23:20.508Z,575
2018-03-27T14:24:29.348Z,550
2018-03-27T14:25:38.183Z,580
2018-03-27T14:26:47.273Z,730
2018-03-27T14:27:56.386Z,770
2018-03-27T14:29:05.499Z,795
2018-03-27T14:30:14.335Z,800
2018-03-27T14:31:23.172Z,780
2018-03-27T14:32:32.062Z,765
2018-03-27T14:33:40.905Z,815
2018-03-27T14:34:50.295Z,650
2018-03-27T14:35:59.138Z,875
2018-03-27T14:37:07.973Z,870
2018-03-27T14:38:16.972Z,670
2018-03-27T14:39:25.799Z,660
2018-03-27T14:40:34.916Z,595
2018-03-27T14:41:44.038Z,580
2018-03-27T14:42:52.876Z,560
2018-03-27T14:44:01.718Z,525
2018-03-27T14:45:10.555Z,515
2018-03-27T14:46:19.397Z,505
2018-03-27T14:47:28.785Z,550
2018-03-27T14:48:37.624Z,595
2018-03-27T14:49:46.573Z,600
2018-03-27T14:50:55.405Z,605
2018-03-27T14:52:04.517Z,655
2018-03-27T14:53:13.356Z,560
2018-03-27T14:54:22.196Z,555
2018-03-27T14:55:31.360Z,585
2018-03-27T14:56:40.201Z,550
2018-03-27T14:57:49.036Z,550
2018-03-27T14:58:57.871Z,545
2018-03-27T15:00:06.709Z,555
2018-03-27T15:01:15.597Z,615
2018-03-27T15:02:24.434Z,615
2018-03-27T15:03:33.322Z,590
2018-03-27T15:04:42.110Z,585
2018-03-27T15:05:50.948Z,580
2018-03-27T15:07:00.088Z,590
2018-03-27T15:08:08.925Z,615
2018-03-27T15:09:17.763Z,635
2018-03-27T15:10:26.598Z,635
2018-03-27T15:11:35.435Z,640
2018-03-27T15:12:44.573Z,590
2018-03-27T15:13:53.968Z,555
2018-03-27T15:15:02.805Z,525
2018-03-27T15:16:11.641Z,500
2018-03-27T15:17:20.478Z,485
2018-03-27T15:18:29.363Z,475
2018-03-27T15:19:38.199Z,460
2018-03-27T15:20:47.041Z,440
2018-03-27T15:21:55.877Z,425
2018-03-27T15:23:04.988Z,415
2018-03-27T15:24:14.227Z,405
2018-03-27T15:25:23.065Z,395
2018-03-27T15:26:31.902Z,390
2018-03-27T15:27:40.740Z,390
2018-03-27T15:28:49.577Z,385
2018-03-27T15:29:58.565Z,390
2018-03-27T15:31:07.401Z,385
2018-03-27T15:32:16.239Z,385
2018-03-27T15:33:25.078Z,390
2018-03-27T15:34:34.193Z,380
2018-03-27T15:35:43.028Z,375
2018-03-27T15:36:51.865Z,375
2018-03-27T15:38:00.982Z,370
2018-03-27T15:39:09.817Z,360
2018-03-27T15:40:18.656Z,355
2018-03-27T15:41:27.794Z,355
2018-03-27T15:42:36.909Z,350
2018-03-27T15:43:45.743Z,350
2018-03-27T15:44:54.579Z,350
2018-03-27T15:46:03.416Z,350
2018-03-27T15:47:12.303Z,350
2018-03-27T15:48:21.144Z,345
2018-03-27T15:49:29.980Z,340
2018-03-27T15:50:38.812Z,330
2018-03-27T15:51:47.649Z,320
2018-03-27T15:52:56.593Z,315
2018-03-27T15:54:05.426Z,305
2018-03-27T15:55:14.262Z,290
2018-03-27T15:56:23.099Z,280
2018-03-27T15:57:32.212Z,270
2018-03-27T15:58:41.384Z,260
2018-03-27T15:59:50.493Z,250
2018-03-27T16:00:59.328Z,245
2018-03-27T16:02:08.164Z,240
2018-03-27T16:03:17.003Z,235
2018-03-27T16:04:25.992Z,230
2018-03-27T16:05:35.102Z,225
2018-03-27T16:06:43.940Z,220
2018-03-27T16:07:53.051Z,215
2018-03-27T16:09:01.888Z,210
2018-03-27T16:10:10.725Z,205
2018-03-27T16:11:19.560Z,205